<?xml version="1.0" encoding="UTF-8" standalone="no" ?>
<gpx xmlns="http://www.topografix.com/GPX/1/1" xmlns:xsi="http://www.w3.org/2001/XMLSchema-instance" xsi:schemaLocation="http://www.topografix.com/GPX/1/1 http://www.topografix.com/GPX/1/1/gpx.xsd" version="1.1" creator="VisuGPX - https://www.visugpx.com">
  <metadata>
    <name>Ligne 6 Vernier Village - Genève Plage</name>
  </metadata>
  <trk>
    <name><![CDATA[Ligne 6 Vernier Village - Genève Plage_1]]></name>
    <trkseg>
      <trkpt lat="46.21269" lon="6.07917">
        <ele>441.1</ele>
        <time>2020-04-23T21:56:39.000Z</time>
      </trkpt>
      <trkpt lat="46.21281" lon="6.07926">
        <ele>441.1</ele>
        <time>2020-04-23T21:56:41.627Z</time>
      </trkpt>
      <trkpt lat="46.21566" lon="6.08245">
        <ele>443.7</ele>
        <time>2020-04-23T21:57:53.818Z</time>
      </trkpt>
      <trkpt lat="46.21651" lon="6.08358">
        <ele>444</ele>
        <time>2020-04-23T21:58:16.906Z</time>
      </trkpt>
      <trkpt lat="46.2169" lon="6.08417">
        <ele>441.8</ele>
        <time>2020-04-23T21:58:28.309Z</time>
      </trkpt>
      <trkpt lat="46.21697" lon="6.08447">
        <ele>441.6</ele>
        <time>2020-04-23T21:58:32.679Z</time>
      </trkpt>
      <trkpt lat="46.21696" lon="6.08464">
        <ele>441.4</ele>
        <time>2020-04-23T21:58:35.001Z</time>
      </trkpt>
      <trkpt lat="46.21689" lon="6.08493">
        <ele>440.9</ele>
        <time>2020-04-23T21:58:39.230Z</time>
      </trkpt>
      <trkpt lat="46.21674" lon="6.08527">
        <ele>440.4</ele>
        <time>2020-04-23T21:58:44.798Z</time>
      </trkpt>
      <trkpt lat="46.21642" lon="6.08581">
        <ele>441.1</ele>
        <time>2020-04-23T21:58:54.744Z</time>
      </trkpt>
      <trkpt lat="46.21633" lon="6.08603">
        <ele>440.6</ele>
        <time>2020-04-23T21:58:58.273Z</time>
      </trkpt>
      <trkpt lat="46.2163" lon="6.08621">
        <ele>440.6</ele>
        <time>2020-04-23T21:59:00.724Z</time>
      </trkpt>
      <trkpt lat="46.21636" lon="6.0864">
        <ele>440.5</ele>
        <time>2020-04-23T21:59:03.719Z</time>
      </trkpt>
      <trkpt lat="46.2165" lon="6.0866">
        <ele>440.7</ele>
        <time>2020-04-23T21:59:07.659Z</time>
      </trkpt>
      <trkpt lat="46.21668" lon="6.08689">
        <ele>440</ele>
        <time>2020-04-23T21:59:12.978Z</time>
      </trkpt>
      <trkpt lat="46.21736" lon="6.08786">
        <ele>437.9</ele>
        <time>2020-04-23T21:59:32.118Z</time>
      </trkpt>
      <trkpt lat="46.21744" lon="6.08807">
        <ele>437.7</ele>
        <time>2020-04-23T21:59:35.445Z</time>
      </trkpt>
      <trkpt lat="46.21815" lon="6.08895">
        <ele>436.4</ele>
        <time>2020-04-23T21:59:54.099Z</time>
      </trkpt>
      <trkpt lat="46.21827" lon="6.08918">
        <ele>436.7</ele>
        <time>2020-04-23T21:59:58.081Z</time>
      </trkpt>
      <trkpt lat="46.2184" lon="6.0895">
        <ele>437.6</ele>
        <time>2020-04-23T22:00:03.358Z</time>
      </trkpt>
      <trkpt lat="46.21859" lon="6.08997">
        <ele>437.7</ele>
        <time>2020-04-23T22:00:10.813Z</time>
      </trkpt>
      <trkpt lat="46.21872" lon="6.09046">
        <ele>435.6</ele>
        <time>2020-04-23T22:00:18.056Z</time>
      </trkpt>
      <trkpt lat="46.21886" lon="6.09119">
        <ele>433.5</ele>
        <time>2020-04-23T22:00:28.638Z</time>
      </trkpt>
      <trkpt lat="46.21895" lon="6.09167">
        <ele>432.3</ele>
        <time>2020-04-23T22:00:35.539Z</time>
      </trkpt>
      <trkpt lat="46.21909" lon="6.09316">
        <ele>427.3</ele>
        <time>2020-04-23T22:00:56.344Z</time>
      </trkpt>
      <trkpt lat="46.21903" lon="6.0936">
        <ele>425.1</ele>
        <time>2020-04-23T22:01:02.478Z</time>
      </trkpt>
      <trkpt lat="46.21868" lon="6.09528">
        <ele>420.7</ele>
        <time>2020-04-23T22:01:26.770Z</time>
      </trkpt>
      <trkpt lat="46.21843" lon="6.09605">
        <ele>418.3</ele>
        <time>2020-04-23T22:01:38.575Z</time>
      </trkpt>
      <trkpt lat="46.21819" lon="6.09668">
        <ele>415.8</ele>
        <time>2020-04-23T22:01:48.591Z</time>
      </trkpt>
      <trkpt lat="46.2178" lon="6.09741">
        <ele>413.2</ele>
        <time>2020-04-23T22:02:01.310Z</time>
      </trkpt>
      <trkpt lat="46.21759" lon="6.0978">
        <ele>410.6</ele>
        <time>2020-04-23T22:02:08.091Z</time>
      </trkpt>
      <trkpt lat="46.21699" lon="6.09853">
        <ele>408.5</ele>
        <time>2020-04-23T22:02:23.805Z</time>
      </trkpt>
      <trkpt lat="46.21666" lon="6.09883">
        <ele>411.4</ele>
        <time>2020-04-23T22:02:31.594Z</time>
      </trkpt>
      <trkpt lat="46.21601" lon="6.0995">
        <ele>411.6</ele>
        <time>2020-04-23T22:02:47.564Z</time>
      </trkpt>
      <trkpt lat="46.21557" lon="6.10008">
        <ele>409.2</ele>
        <time>2020-04-23T22:02:59.503Z</time>
      </trkpt>
      <trkpt lat="46.21502" lon="6.10102">
        <ele>411.3</ele>
        <time>2020-04-23T22:03:16.635Z</time>
      </trkpt>
      <trkpt lat="46.21406" lon="6.10241">
        <ele>413.2</ele>
        <time>2020-04-23T22:03:43.795Z</time>
      </trkpt>
      <trkpt lat="46.21325" lon="6.10358">
        <ele>417.2</ele>
        <time>2020-04-23T22:04:06.717Z</time>
      </trkpt>
      <trkpt lat="46.21264" lon="6.10442">
        <ele>419.9</ele>
        <time>2020-04-23T22:04:23.637Z</time>
      </trkpt>
      <trkpt lat="46.21235" lon="6.10487">
        <ele>420.5</ele>
        <time>2020-04-23T22:04:32.103Z</time>
      </trkpt>
      <trkpt lat="46.21227" lon="6.10506">
        <ele>422</ele>
        <time>2020-04-23T22:04:35.136Z</time>
      </trkpt>
      <trkpt lat="46.21215" lon="6.10539">
        <ele>422.7</ele>
        <time>2020-04-23T22:04:40.357Z</time>
      </trkpt>
      <trkpt lat="46.21154" lon="6.10741">
        <ele>424</ele>
        <time>2020-04-23T22:05:10.778Z</time>
      </trkpt>
      <trkpt lat="46.21137" lon="6.10842">
        <ele>426</ele>
        <time>2020-04-23T22:05:25.248Z</time>
      </trkpt>
      <trkpt lat="46.21134" lon="6.10888">
        <ele>425.8</ele>
        <time>2020-04-23T22:05:31.585Z</time>
      </trkpt>
      <trkpt lat="46.21138" lon="6.10911">
        <ele>425.6</ele>
        <time>2020-04-23T22:05:34.902Z</time>
      </trkpt>
      <trkpt lat="46.21154" lon="6.10953">
        <ele>424.1</ele>
        <time>2020-04-23T22:05:41.449Z</time>
      </trkpt>
      <trkpt lat="46.21159" lon="6.10977">
        <ele>423.5</ele>
        <time>2020-04-23T22:05:44.973Z</time>
      </trkpt>
      <trkpt lat="46.21159" lon="6.10998">
        <ele>422.7</ele>
        <time>2020-04-23T22:05:47.872Z</time>
      </trkpt>
      <trkpt lat="46.21145" lon="6.11041">
        <ele>423.5</ele>
        <time>2020-04-23T22:05:54.488Z</time>
      </trkpt>
      <trkpt lat="46.2112" lon="6.1112">
        <ele>425.8</ele>
        <time>2020-04-23T22:06:06.553Z</time>
      </trkpt>
      <trkpt lat="46.21114" lon="6.11196">
        <ele>426.4</ele>
        <time>2020-04-23T22:06:17.166Z</time>
      </trkpt>
      <trkpt lat="46.21118" lon="6.11277">
        <ele>425.3</ele>
        <time>2020-04-23T22:06:28.331Z</time>
      </trkpt>
      <trkpt lat="46.21116" lon="6.11322">
        <ele>425.7</ele>
        <time>2020-04-23T22:06:34.650Z</time>
      </trkpt>
      <trkpt lat="46.21111" lon="6.11354">
        <ele>426.5</ele>
        <time>2020-04-23T22:06:39.228Z</time>
      </trkpt>
      <trkpt lat="46.21101" lon="6.11398">
        <ele>427.3</ele>
        <time>2020-04-23T22:06:45.666Z</time>
      </trkpt>
      <trkpt lat="46.21074" lon="6.11485">
        <ele>428.1</ele>
        <time>2020-04-23T22:06:58.808Z</time>
      </trkpt>
      <trkpt lat="46.21054" lon="6.11547">
        <ele>426.3</ele>
        <time>2020-04-23T22:07:08.308Z</time>
      </trkpt>
      <trkpt lat="46.21043" lon="6.11601">
        <ele>422.7</ele>
        <time>2020-04-23T22:07:16.016Z</time>
      </trkpt>
      <trkpt lat="46.21026" lon="6.11677">
        <ele>418.6</ele>
        <time>2020-04-23T22:07:27.084Z</time>
      </trkpt>
      <trkpt lat="46.20997" lon="6.11808">
        <ele>415.5</ele>
        <time>2020-04-23T22:07:46.188Z</time>
      </trkpt>
      <trkpt lat="46.20949" lon="6.1204">
        <ele>416.8</ele>
        <time>2020-04-23T22:08:19.730Z</time>
      </trkpt>
      <trkpt lat="46.20899" lon="6.12284">
        <ele>417.4</ele>
        <time>2020-04-23T22:08:54.927Z</time>
      </trkpt>
      <trkpt lat="46.20843" lon="6.12538">
        <ele>418.4</ele>
        <time>2020-04-23T22:09:31.868Z</time>
      </trkpt>
      <trkpt lat="46.2083" lon="6.12662">
        <ele>415.2</ele>
        <time>2020-04-23T22:09:49.190Z</time>
      </trkpt>
      <trkpt lat="46.20841" lon="6.12858">
        <ele>415.2</ele>
        <time>2020-04-23T22:10:16.476Z</time>
      </trkpt>
      <trkpt lat="46.20872" lon="6.13137">
        <ele>415.9</ele>
        <time>2020-04-23T22:10:55.580Z</time>
      </trkpt>
      <trkpt lat="46.20878" lon="6.13213">
        <ele>416.5</ele>
        <time>2020-04-23T22:11:06.140Z</time>
      </trkpt>
      <trkpt lat="46.20875" lon="6.13279">
        <ele>416.4</ele>
        <time>2020-04-23T22:11:15.290Z</time>
      </trkpt>
      <trkpt lat="46.20867" lon="6.13333">
        <ele>415.9</ele>
        <time>2020-04-23T22:11:22.971Z</time>
      </trkpt>
      <trkpt lat="46.20832" lon="6.13485">
        <ele>411.6</ele>
        <time>2020-04-23T22:11:45.246Z</time>
      </trkpt>
      <trkpt lat="46.20832" lon="6.1351">
        <ele>410.2</ele>
        <time>2020-04-23T22:11:48.667Z</time>
      </trkpt>
      <trkpt lat="46.20931" lon="6.13907">
        <ele>398.7</ele>
        <time>2020-04-23T22:12:47.116Z</time>
      </trkpt>
      <trkpt lat="46.20932" lon="6.13915">
        <ele>398.6</ele>
        <time>2020-04-23T22:12:48.290Z</time>
      </trkpt>
      <trkpt lat="46.20892" lon="6.1399">
        <ele>391.9</ele>
        <time>2020-04-23T22:13:01.369Z</time>
      </trkpt>
      <trkpt lat="46.20852" lon="6.14063">
        <ele>390</ele>
        <time>2020-04-23T22:13:14.319Z</time>
      </trkpt>
      <trkpt lat="46.20846" lon="6.14105">
        <ele>390.4</ele>
        <time>2020-04-23T22:13:20.294Z</time>
      </trkpt>
      <trkpt lat="46.20842" lon="6.1416">
        <ele>390.5</ele>
        <time>2020-04-23T22:13:27.967Z</time>
      </trkpt>
      <trkpt lat="46.20829" lon="6.1428">
        <ele>390.4</ele>
        <time>2020-04-23T22:13:44.802Z</time>
      </trkpt>
      <trkpt lat="46.20796" lon="6.1457">
        <ele>387.2</ele>
        <time>2020-04-23T22:14:25.494Z</time>
      </trkpt>
      <trkpt lat="46.20698" lon="6.14755">
        <ele>377.9</ele>
        <time>2020-04-23T22:14:57.819Z</time>
      </trkpt>
      <trkpt lat="46.20418" lon="6.15023">
        <ele>375.2</ele>
        <time>2020-04-23T22:16:04.955Z</time>
      </trkpt>
      <trkpt lat="46.20408" lon="6.15027">
        <ele>378.9</ele>
        <time>2020-04-23T22:16:07.028Z</time>
      </trkpt>
      <trkpt lat="46.20393" lon="6.15026">
        <ele>379.6</ele>
        <time>2020-04-23T22:16:10.083Z</time>
      </trkpt>
      <trkpt lat="46.20368" lon="6.15013">
        <ele>381.6</ele>
        <time>2020-04-23T22:16:15.488Z</time>
      </trkpt>
      <trkpt lat="46.20362" lon="6.15015">
        <ele>382.1</ele>
        <time>2020-04-23T22:16:16.714Z</time>
      </trkpt>
      <trkpt lat="46.20311" lon="6.15245">
        <ele>380.5</ele>
        <time>2020-04-23T22:16:50.108Z</time>
      </trkpt>
      <trkpt lat="46.20307" lon="6.15253">
        <ele>380</ele>
        <time>2020-04-23T22:16:51.435Z</time>
      </trkpt>
      <trkpt lat="46.20191" lon="6.15206">
        <ele>386.4</ele>
        <time>2020-04-23T22:17:15.596Z</time>
      </trkpt>
      <trkpt lat="46.20186" lon="6.15212">
        <ele>386.4</ele>
        <time>2020-04-23T22:17:17.023Z</time>
      </trkpt>
      <trkpt lat="46.20178" lon="6.15226">
        <ele>386.3</ele>
        <time>2020-04-23T22:17:19.402Z</time>
      </trkpt>
      <trkpt lat="46.20165" lon="6.15289">
        <ele>388.2</ele>
        <time>2020-04-23T22:17:28.570Z</time>
      </trkpt>
      <trkpt lat="46.20156" lon="6.15305">
        <ele>388.3</ele>
        <time>2020-04-23T22:17:31.367Z</time>
      </trkpt>
      <trkpt lat="46.20146" lon="6.15313">
        <ele>388.5</ele>
        <time>2020-04-23T22:17:33.764Z</time>
      </trkpt>
      <trkpt lat="46.20141" lon="6.15323">
        <ele>388.6</ele>
        <time>2020-04-23T22:17:35.414Z</time>
      </trkpt>
      <trkpt lat="46.20139" lon="6.15332">
        <ele>388.7</ele>
        <time>2020-04-23T22:17:36.640Z</time>
      </trkpt>
      <trkpt lat="46.20138" lon="6.15346">
        <ele>389.7</ele>
        <time>2020-04-23T22:17:38.652Z</time>
      </trkpt>
      <trkpt lat="46.20142" lon="6.15363">
        <ele>389.9</ele>
        <time>2020-04-23T22:17:41.051Z</time>
      </trkpt>
      <trkpt lat="46.20147" lon="6.15383">
        <ele>390.2</ele>
        <time>2020-04-23T22:17:44.036Z</time>
      </trkpt>
      <trkpt lat="46.20147" lon="6.15398">
        <ele>390.4</ele>
        <time>2020-04-23T22:17:46.042Z</time>
      </trkpt>
      <trkpt lat="46.20138" lon="6.15439">
        <ele>391.1</ele>
        <time>2020-04-23T22:17:52.107Z</time>
      </trkpt>
      <trkpt lat="46.20131" lon="6.15484">
        <ele>391.1</ele>
        <time>2020-04-23T22:17:58.418Z</time>
      </trkpt>
      <trkpt lat="46.20117" lon="6.15554">
        <ele>390.9</ele>
        <time>2020-04-23T22:18:08.575Z</time>
      </trkpt>
      <trkpt lat="46.2012" lon="6.15558">
        <ele>390.8</ele>
        <time>2020-04-23T22:18:09.365Z</time>
      </trkpt>
      <trkpt lat="46.20129" lon="6.15564">
        <ele>390.6</ele>
        <time>2020-04-23T22:18:11.426Z</time>
      </trkpt>
      <trkpt lat="46.20147" lon="6.15572">
        <ele>390.1</ele>
        <time>2020-04-23T22:18:15.285Z</time>
      </trkpt>
      <trkpt lat="46.20208" lon="6.15632">
        <ele>385.7</ele>
        <time>2020-04-23T22:18:30.085Z</time>
      </trkpt>
      <trkpt lat="46.20247" lon="6.15659">
        <ele>384.4</ele>
        <time>2020-04-23T22:18:38.727Z</time>
      </trkpt>
      <trkpt lat="46.20273" lon="6.15687">
        <ele>385.4</ele>
        <time>2020-04-23T22:18:45.207Z</time>
      </trkpt>
      <trkpt lat="46.20351" lon="6.15756">
        <ele>384.5</ele>
        <time>2020-04-23T22:19:03.451Z</time>
      </trkpt>
      <trkpt lat="46.20379" lon="6.15785">
        <ele>384.2</ele>
        <time>2020-04-23T22:19:10.275Z</time>
      </trkpt>
      <trkpt lat="46.20431" lon="6.1588">
        <ele>383.1</ele>
        <time>2020-04-23T22:19:27.103Z</time>
      </trkpt>
      <trkpt lat="46.20497" lon="6.15994">
        <ele>383.9</ele>
        <time>2020-04-23T22:19:47.730Z</time>
      </trkpt>
      <trkpt lat="46.2061" lon="6.16135">
        <ele>384.9</ele>
        <time>2020-04-23T22:20:17.610Z</time>
      </trkpt>
      <trkpt lat="46.20674" lon="6.16207">
        <ele>383.9</ele>
        <time>2020-04-23T22:20:33.916Z</time>
      </trkpt>
      <trkpt lat="46.20775" lon="6.1638">
        <ele>378.2</ele>
        <time>2020-04-23T22:21:05.205Z</time>
      </trkpt>
      <trkpt lat="46.2088" lon="6.16625">
        <ele>374.1</ele>
        <time>2020-04-23T22:21:45.185Z</time>
      </trkpt>
      <trkpt lat="46.20954" lon="6.16789">
        <ele>376.3</ele>
        <time>2020-04-23T22:22:12.249Z</time>
      </trkpt>
      <trkpt lat="46.2112" lon="6.17154">
        <ele>377.6</ele>
        <time>2020-04-23T22:23:12.811Z</time>
      </trkpt>
      <trkpt lat="46.21157" lon="6.17238">
        <ele>377.9</ele>
        <time>2020-04-23T22:23:26.499Z</time>
      </trkpt>
      <trkpt lat="46.21163" lon="6.17256">
        <ele>378.3</ele>
        <time>2020-04-23T22:23:29.357Z</time>
      </trkpt>
      <trkpt lat="46.21165" lon="6.17268">
        <ele>379.6</ele>
        <time>2020-04-23T22:23:31.007Z</time>
      </trkpt>
      <trkpt lat="46.21162" lon="6.17275">
        <ele>380.3</ele>
        <time>2020-04-23T22:23:32.071Z</time>
      </trkpt>
      <trkpt lat="46.21151" lon="6.17285">
        <ele>381.2</ele>
        <time>2020-04-23T22:23:34.734Z</time>
      </trkpt>
      <trkpt lat="46.21148" lon="6.17296">
        <ele>381.7</ele>
        <time>2020-04-23T22:23:36.432Z</time>
      </trkpt>
      <trkpt lat="46.21151" lon="6.17304">
        <ele>381.9</ele>
        <time>2020-04-23T22:23:37.771Z</time>
      </trkpt>
      <trkpt lat="46.21156" lon="6.17311">
        <ele>381.9</ele>
        <time>2020-04-23T22:23:39.242Z</time>
      </trkpt>
      <trkpt lat="46.21161" lon="6.1731">
        <ele>381.9</ele>
        <time>2020-04-23T22:23:40.073Z</time>
      </trkpt>
      <trkpt lat="46.21163" lon="6.17308">
        <ele>381.8</ele>
        <time>2020-04-23T22:23:40.609Z</time>
      </trkpt>
      <trkpt lat="46.21168" lon="6.17301">
        <ele>377.8</ele>
        <time>2020-04-23T22:23:42.028Z</time>
      </trkpt>
      <trkpt lat="46.21172" lon="6.17294">
        <ele>377.3</ele>
        <time>2020-04-23T22:23:43.398Z</time>
      </trkpt>
      <trkpt lat="46.21172" lon="6.17285">
        <ele>377</ele>
        <time>2020-04-23T22:23:44.670Z</time>
      </trkpt>
      <trkpt lat="46.21171" lon="6.17278">
        <ele>376.8</ele>
        <time>2020-04-23T22:23:45.647Z</time>
      </trkpt>
      <trkpt lat="46.2117" lon="6.1727">
        <ele>376.7</ele>
        <time>2020-04-23T22:23:46.784Z</time>
      </trkpt>
      <trkpt lat="46.21169" lon="6.17259">
        <ele>376.8</ele>
        <time>2020-04-23T22:23:48.203Z</time>
      </trkpt>
      <trkpt lat="46.21163" lon="6.17242">
        <ele>377.5</ele>
        <time>2020-04-23T22:23:50.895Z</time>
      </trkpt>
      <trkpt lat="46.21139" lon="6.17189">
        <ele>378</ele>
        <time>2020-04-23T22:23:59.716Z</time>
      </trkpt>
    </trkseg>
  </trk>
</gpx>